Strona główna
METAR-TAF:

METAR-TAF

Lotnisko :

Marham, Anglia

Szerokość geograficzna: 52-39N, Długość geograficzna: 000-34E, wysokość: 23 m

Aktualna obserwacja pogody

Raport powstał 43 minut temu, godzina 04:50 UTC
Wiatr 23 kt od południowy zachód
Temperatura 6°C
Wilgotność 70%
Ciśnienie 1002 hPa
Widzialność 10 km lub więcej
Brak chmur poniżej 1500 m i brak chmur cumulonimbus

METAR: EGYM 170450Z 22023KT CAVOK 06/01 Q1002 BLU

czas: 05:33 (05:33 UTC)


TAF: brakujący

Obserwacja i prognoza pogody dla ponad 4000 lotnisk (raport METAR i TAF).

Dostępne stacje oznaczono żółtymi i czerwonymi punktami na mapie.

Najedź kursorem aby zobaczyć nazwę stacji.

Kliknij aby zobaczyć obserwacje i prognozy pogody.

Aby zmienić mapę: kliknij na zielony przycisk z czarnym krzyżykiem, aby powiększyć; na zielony przycisk z myślnikiem, aby pomniejszyć; na zielone strzałki, aby przejść do map sąsiednich.


METAR-TAF: